createdAt,value
2018-12-29T00:00:37.794Z,7.80
2018-12-29T00:05:41.382Z,7.90
2018-12-29T00:10:44.969Z,7.90
2018-12-29T00:15:48.645Z,7.90
2018-12-29T00:20:52.209Z,7.80
2018-12-29T00:25:55.802Z,7.80
2018-12-29T00:30:59.354Z,7.90
2018-12-29T00:36:02.949Z,7.90
2018-12-29T00:41:06.502Z,7.80
2018-12-29T00:46:10.101Z,7.90
2018-12-29T00:51:13.662Z,7.90
2018-12-29T00:56:17.239Z,7.80
2018-12-29T01:01:20.813Z,7.80
2018-12-29T01:06:24.402Z,7.70
2018-12-29T01:11:27.955Z,7.80
2018-12-29T01:16:31.514Z,7.80
2018-12-29T01:21:35.325Z,7.80
2018-12-29T01:26:38.906Z,7.80
2018-12-29T01:31:42.466Z,7.80
2018-12-29T01:36:46.025Z,7.80
2018-12-29T01:41:49.939Z,7.80
2018-12-29T01:46:53.550Z,7.90
2018-12-29T01:51:57.097Z,7.80
2018-12-29T01:57:00.682Z,7.90
2018-12-29T02:02:04.690Z,7.90
2018-12-29T02:07:08.278Z,7.90
2018-12-29T02:12:11.834Z,7.90
2018-12-29T02:17:15.419Z,7.90
2018-12-29T02:22:19.026Z,7.90
2018-12-29T02:27:22.657Z,7.90
2018-12-29T02:32:26.231Z,7.90
2018-12-29T02:37:29.812Z,8.00
2018-12-29T02:42:33.362Z,8.00
2018-12-29T02:47:36.931Z,8.00
2018-12-29T02:52:40.488Z,8.10
2018-12-29T02:57:44.038Z,8.10
2018-12-29T03:02:47.598Z,8.10
2018-12-29T03:07:51.167Z,8.10
2018-12-29T03:12:54.727Z,8.10
2018-12-29T03:17:58.285Z,8.10
2018-12-29T03:23:02.080Z,8.10
2018-12-29T03:28:05.637Z,8.10
2018-12-29T03:33:09.191Z,8.00
2018-12-29T03:38:12.750Z,8.00
2018-12-29T03:43:16.294Z,8.00
2018-12-29T03:48:19.875Z,8.00
2018-12-29T03:53:23.454Z,8.00
2018-12-29T03:58:27.043Z,8.00
2018-12-29T04:03:30.631Z,8.00
2018-12-29T04:08:34.197Z,8.00
2018-12-29T04:13:38.649Z,7.90
2018-12-29T04:18:42.223Z,8.00
2018-12-29T04:23:45.947Z,8.00
2018-12-29T04:28:49.511Z,8.00
2018-12-29T04:33:53.082Z,8.10
2018-12-29T04:38:56.635Z,8.00
2018-12-29T04:44:00.198Z,8.10
2018-12-29T04:49:03.768Z,8.10
2018-12-29T04:54:07.335Z,8.10
2018-12-29T04:59:10.889Z,8.10
2018-12-29T05:04:14.451Z,8.20
2018-12-29T05:09:18.003Z,8.10
2018-12-29T05:14:21.569Z,8.10
2018-12-29T05:19:25.158Z,8.10
2018-12-29T05:24:28.734Z,8.10
2018-12-29T05:29:32.314Z,8.10
2018-12-29T05:34:35.886Z,8.10
2018-12-29T05:39:39.455Z,8.10
2018-12-29T05:44:43.350Z,8.10
2018-12-29T05:49:46.943Z,8.10
2018-12-29T05:54:50.523Z,8.20
2018-12-29T05:59:54.087Z,8.20
2018-12-29T06:04:57.671Z,8.20
2018-12-29T06:10:01.228Z,8.20
2018-12-29T06:15:04.858Z,8.20
2018-12-29T06:20:08.433Z,8.30
2018-12-29T06:25:12.013Z,8.30
2018-12-29T06:30:15.570Z,8.30
2018-12-29T06:35:19.118Z,8.30
2018-12-29T06:40:22.711Z,8.30
2018-12-29T06:45:26.281Z,8.30
2018-12-29T06:50:29.842Z,8.40
2018-12-29T06:55:33.405Z,8.40
2018-12-29T07:00:36.970Z,8.40
2018-12-29T07:05:40.534Z,8.40
2018-12-29T07:10:44.107Z,8.40
2018-12-29T07:15:48.157Z,8.40
2018-12-29T07:20:51.740Z,8.40
2018-12-29T07:25:55.310Z,8.40
2018-12-29T07:30:58.902Z,8.40
2018-12-29T07:36:02.491Z,8.40
2018-12-29T07:41:06.069Z,8.40
2018-12-29T07:46:09.661Z,8.40
2018-12-29T07:51:13.221Z,8.40
2018-12-29T07:56:16.812Z,8.50
2018-12-29T08:01:20.399Z,8.40
2018-12-29T08:06:23.978Z,8.40
2018-12-29T08:11:27.795Z,8.40
2018-12-29T08:16:31.370Z,8.50
2018-12-29T08:21:34.942Z,8.40
2018-12-29T08:26:38.518Z,8.50
2018-12-29T08:31:42.086Z,8.40
2018-12-29T08:36:45.654Z,8.50
2018-12-29T08:41:49.227Z,8.50
2018-12-29T08:46:52.818Z,8.50
2018-12-29T08:51:56.402Z,8.50
2018-12-29T08:56:59.959Z,8.50
2018-12-29T09:02:03.537Z,8.50
2018-12-29T09:07:07.342Z,8.40
2018-12-29T09:12:10.919Z,8.40
2018-12-29T09:17:14.479Z,8.40
2018-12-29T09:22:18.062Z,8.40
2018-12-29T09:27:21.622Z,8.50
2018-12-29T09:32:25.418Z,8.50
2018-12-29T09:37:28.986Z,8.50
2018-12-29T09:42:32.553Z,8.60
2018-12-29T09:47:36.363Z,8.60
2018-12-29T09:52:39.951Z,8.70
2018-12-29T09:57:43.524Z,8.70
2018-12-29T10:02:47.103Z,8.80
2018-12-29T10:07:50.907Z,8.80
2018-12-29T10:12:54.509Z,8.90
2018-12-29T10:17:58.075Z,8.90
2018-12-29T10:23:01.654Z,8.90
2018-12-29T10:28:05.290Z,9.00
2018-12-29T10:33:08.879Z,9.00
2018-12-29T10:38:12.438Z,9.00
2018-12-29T10:43:16.026Z,9.00
2018-12-29T10:48:19.606Z,8.90
2018-12-29T10:53:23.194Z,8.90
2018-12-29T10:58:26.775Z,8.90
2018-12-29T11:03:30.339Z,8.90
2018-12-29T11:08:33.930Z,8.90
2018-12-29T11:13:37.534Z,9.00
2018-12-29T11:18:42.141Z,9.00
2018-12-29T11:23:45.707Z,9.00
2018-12-29T11:28:49.299Z,9.00
2018-12-29T11:33:52.877Z,9.00
2018-12-29T11:38:56.457Z,9.00
2018-12-29T11:44:00.018Z,9.00
2018-12-29T11:49:03.606Z,8.90
2018-12-29T11:54:07.166Z,8.90
2018-12-29T11:59:10.731Z,8.90
2018-12-29T12:04:14.298Z,8.90
2018-12-29T12:09:17.863Z,8.90
2018-12-29T12:14:21.491Z,8.90
2018-12-29T12:19:25.131Z,8.90
2018-12-29T12:24:28.693Z,8.90
2018-12-29T12:29:32.358Z,8.90
2018-12-29T12:34:35.921Z,8.90
2018-12-29T12:39:39.486Z,9.00
2018-12-29T12:44:43.126Z,9.00
2018-12-29T12:49:48.186Z,9.00
2018-12-29T12:54:51.741Z,9.00
2018-12-29T12:59:55.478Z,9.00
2018-12-29T13:04:59.430Z,9.00
2018-12-29T13:10:03.005Z,9.00
2018-12-29T13:15:07.134Z,8.90
2018-12-29T13:20:10.703Z,8.90
2018-12-29T13:25:14.259Z,8.90
2018-12-29T13:30:17.830Z,8.80
2018-12-29T13:35:21.510Z,8.80
2018-12-29T13:40:25.078Z,8.70
2018-12-29T13:45:28.654Z,8.80
2018-12-29T13:50:32.223Z,8.80
2018-12-29T13:55:35.786Z,8.80
2018-12-29T14:00:39.346Z,8.80
2018-12-29T14:05:42.917Z,8.80
2018-12-29T14:10:46.496Z,8.80
2018-12-29T14:15:50.060Z,8.80
2018-12-29T14:20:53.633Z,8.70
2018-12-29T14:25:57.678Z,8.70
2018-12-29T14:31:01.250Z,8.50
2018-12-29T14:36:05.229Z,8.40
2018-12-29T14:41:08.811Z,8.40
2018-12-29T14:46:12.782Z,8.30
2018-12-29T14:51:16.377Z,8.30
2018-12-29T14:56:20.332Z,8.40
2018-12-29T15:01:23.887Z,8.30
2018-12-29T15:06:27.630Z,8.20
2018-12-29T15:11:31.418Z,8.20
2018-12-29T15:16:35.054Z,8.10
2018-12-29T15:21:38.698Z,8.00
2018-12-29T15:26:42.269Z,8.00
2018-12-29T15:31:46.243Z,8.00
2018-12-29T15:36:49.815Z,8.00
2018-12-29T15:41:53.450Z,7.90
2018-12-29T15:46:57.042Z,7.90
2018-12-29T15:52:00.686Z,7.90
2018-12-29T15:57:04.733Z,7.90
2018-12-29T16:02:09.178Z,7.90
2018-12-29T16:07:12.819Z,7.90
2018-12-29T16:12:16.622Z,7.90
2018-12-29T16:17:20.203Z,7.80
2018-12-29T16:22:24.250Z,7.80
2018-12-29T16:27:27.910Z,7.90
2018-12-29T16:32:31.566Z,7.90
2018-12-29T16:37:35.158Z,7.90
2018-12-29T16:42:38.746Z,7.90
2018-12-29T16:47:42.328Z,7.90
2018-12-29T16:52:45.977Z,7.90
2018-12-29T16:57:49.914Z,7.90
2018-12-29T17:02:53.485Z,8.00
2018-12-29T17:07:57.130Z,8.00
2018-12-29T17:13:00.714Z,8.00
2018-12-29T17:18:04.350Z,8.10
2018-12-29T17:23:07.923Z,8.20
2018-12-29T17:28:11.893Z,8.20
2018-12-29T17:33:15.535Z,8.20
2018-12-29T17:38:19.178Z,8.20
2018-12-29T17:43:22.858Z,8.20
2018-12-29T17:48:26.449Z,8.20
2018-12-29T17:53:30.012Z,8.30
2018-12-29T17:58:33.670Z,8.30
2018-12-29T18:03:37.267Z,8.20
2018-12-29T18:08:41.831Z,8.30
2018-12-29T18:13:45.658Z,8.30
2018-12-29T18:18:50.766Z,8.30
2018-12-29T18:23:54.404Z,8.40
2018-12-29T18:28:58.348Z,8.40
2018-12-29T18:34:01.915Z,8.30
2018-12-29T18:39:07.977Z,8.30
2018-12-29T18:44:11.545Z,8.40
2018-12-29T18:49:15.242Z,8.40
2018-12-29T18:54:18.802Z,8.40
2018-12-29T18:59:22.453Z,8.40
2018-12-29T19:04:26.402Z,8.50
2018-12-29T19:09:30.045Z,8.50
2018-12-29T19:14:33.743Z,8.50
2018-12-29T19:19:37.406Z,8.60
2018-12-29T19:24:41.054Z,8.60
2018-12-29T19:29:44.613Z,8.70
2018-12-29T19:34:48.582Z,8.70
2018-12-29T19:39:52.846Z,8.70
2018-12-29T19:44:56.414Z,8.70
2018-12-29T19:49:59.982Z,8.80
2018-12-29T19:55:03.657Z,8.90
2018-12-29T20:00:09.941Z,8.90
2018-12-29T20:05:13.899Z,9.00
2018-12-29T20:10:17.458Z,9.00
2018-12-29T20:15:21.013Z,8.90
2018-12-29T20:20:24.574Z,8.90
2018-12-29T20:25:28.206Z,8.90
2018-12-29T20:30:31.768Z,8.90
2018-12-29T20:35:35.522Z,8.80
2018-12-29T20:40:39.103Z,8.80
2018-12-29T20:45:42.713Z,8.80
2018-12-29T20:50:46.606Z,8.70
2018-12-29T20:55:50.196Z,8.70
2018-12-29T21:00:54.152Z,8.60
2018-12-29T21:05:57.836Z,8.70
2018-12-29T21:11:01.414Z,8.60
2018-12-29T21:16:05.105Z,8.60
2018-12-29T21:21:08.779Z,8.60
2018-12-29T21:26:12.474Z,8.60
2018-12-29T21:31:16.366Z,8.60
2018-12-29T21:36:20.058Z,8.60
2018-12-29T21:41:23.635Z,8.60
2018-12-29T21:46:27.465Z,8.60
2018-12-29T21:51:31.040Z,8.60
2018-12-29T21:56:35.138Z,8.60
2018-12-29T22:01:38.734Z,8.60
2018-12-29T22:06:42.302Z,8.60
2018-12-29T22:11:45.890Z,8.70
2018-12-29T22:16:49.503Z,8.70
2018-12-29T22:21:53.298Z,8.70
2018-12-29T22:26:56.862Z,8.80
2018-12-29T22:32:00.417Z,8.80
2018-12-29T22:37:04.014Z,8.80
2018-12-29T22:42:07.566Z,8.80
2018-12-29T22:47:11.142Z,8.80
2018-12-29T22:52:15.086Z,8.80
2018-12-29T22:57:18.687Z,8.80
2018-12-29T23:02:22.317Z,8.90
2018-12-29T23:07:26.429Z,8.90
2018-12-29T23:12:30.083Z,8.90
2018-12-29T23:17:34.270Z,8.90
2018-12-29T23:22:37.865Z,8.90
2018-12-29T23:27:41.507Z,8.90
2018-12-29T23:32:45.165Z,9.00
2018-12-29T23:37:48.716Z,8.90
2018-12-29T23:42:52.350Z,9.00
2018-12-29T23:47:55.958Z,9.00
2018-12-29T23:52:59.593Z,9.00
2018-12-29T23:58:03.560Z,8.90
